Weather at Reynolds Field

Public forecast

Using degrees Fahrenheit for public forecast. Weather courtesy of forecast.io.

Closest aviation weather report (METAR) to Reynolds Field

Closest report is Newport Regional Airport, 27.4 nm (50.8 km) N. Retrieved UTC (0 seconds ago):

Closest aviation forecast (TAF) to Reynolds Field

Closest forecast is Jonesboro Municipal Airport, 43.7 nm (81.0 km) NNE. Retrieved 2020-09-22 00:33 UTC (4 hours ago):

TAF KJBR 212330Z 2200/2224 07009KT P6SM FEW250 FM220900 08004KT P6SM VCSH BKN250 FM221400 12005KT P6SM VCSH BKN100 FM221800 15005KT P6SM OVC100 FM222000 04005KT P6SM OVC100